createdAt,value
2018-02-13T00:00:54.576Z,76.6
2018-02-13T00:01:54.565Z,76.62
2018-02-13T00:02:54.564Z,76.6
2018-02-13T00:03:54.566Z,76.72
2018-02-13T00:04:54.604Z,76.71
2018-02-13T00:05:54.647Z,76.58
2018-02-13T00:06:54.563Z,76.53
2018-02-13T00:07:54.601Z,76.49
2018-02-13T00:08:54.570Z,76.72
2018-02-13T00:12:54.618Z,76.65
2018-02-13T00:13:54.831Z,76.78
2018-02-13T00:14:55.529Z,76.91
2018-02-13T00:15:54.529Z,76.85
2018-02-13T00:16:54.504Z,76.73
2018-02-13T00:17:54.511Z,76.94
2018-02-13T00:18:54.515Z,76.95
2018-02-13T00:19:54.511Z,76.58
2018-02-13T00:20:54.616Z,76.56
2018-02-13T00:21:54.584Z,76.86
2018-02-13T00:22:54.510Z,76.78
2018-02-13T00:23:54.513Z,76.56
2018-02-13T00:24:54.512Z,76.35
2018-02-13T00:25:54.516Z,76.53
2018-02-13T00:26:54.515Z,76.72
2018-02-13T00:27:54.545Z,76.5
2018-02-13T00:28:54.516Z,76.54
2018-02-13T00:29:54.509Z,76.92
2018-02-13T00:30:54.514Z,76.81
2018-02-13T00:31:54.516Z,76.8
2018-02-13T00:32:54.515Z,76.89
2018-02-13T00:33:54.646Z,76.76
2018-02-13T00:34:54.516Z,76.8
2018-02-13T00:35:54.893Z,76.68
2018-02-13T00:36:54.518Z,76.38
2018-02-13T00:37:54.518Z,76.64
2018-02-13T00:38:54.522Z,76.56
2018-02-13T00:39:54.559Z,76.54
2018-02-13T00:40:54.518Z,76.42
2018-02-13T00:41:54.586Z,76.32
2018-02-13T00:42:54.698Z,76.51
2018-02-13T00:43:54.635Z,76.19
2018-02-13T00:44:54.524Z,76.33
2018-02-13T00:45:54.515Z,76.59
2018-02-13T00:46:54.422Z,76.71
2018-02-13T00:47:54.418Z,76.53
2018-02-13T00:48:54.431Z,76.29
2018-02-13T00:49:54.431Z,76.44
2018-02-13T00:50:54.417Z,76.4
2018-02-13T00:51:54.424Z,76.46
2018-02-13T00:52:54.431Z,76.33
2018-02-13T00:53:54.428Z,76.52
2018-02-13T00:54:54.463Z,76.29
2018-02-13T00:55:54.434Z,76.29
2018-02-13T00:56:54.430Z,76.52
2018-02-13T00:57:54.427Z,76.48
2018-02-13T00:58:54.427Z,76.16
2018-02-13T00:59:54.574Z,76.39
2018-02-13T01:00:54.440Z,76.52
2018-02-13T01:01:54.440Z,76.39
2018-02-13T01:02:54.425Z,76.51
2018-02-13T01:03:54.431Z,76.7
2018-02-13T01:04:54.441Z,76.47
2018-02-13T01:05:54.428Z,76.44
2018-02-13T01:06:54.441Z,76.5
2018-02-13T01:07:54.437Z,76.18
2018-02-13T01:08:54.436Z,76.6
2018-02-13T01:09:54.434Z,76.69
2018-02-13T01:10:54.453Z,76.32
2018-02-13T01:11:54.430Z,76.41
2018-02-13T01:12:54.431Z,76.33
2018-02-13T01:13:54.440Z,76.57
2018-02-13T01:14:54.426Z,76.51
2018-02-13T01:15:54.445Z,76.51
2018-02-13T01:16:54.435Z,76.33
2018-02-13T01:17:54.280Z,76.18
2018-02-13T01:18:54.288Z,76.33
2018-02-13T01:19:54.291Z,76.24
2018-02-13T01:20:54.318Z,76.17
2018-02-13T01:21:54.289Z,76.11
2018-02-13T01:22:54.288Z,76.14
2018-02-13T01:23:54.292Z,76.07
2018-02-13T01:24:54.289Z,76.26
2018-02-13T01:25:54.291Z,76.13
2018-02-13T01:26:54.289Z,76.2
2018-02-13T01:27:54.288Z,76.25
2018-02-13T01:28:54.289Z,76.14
2018-02-13T01:29:54.282Z,76.11
2018-02-13T01:30:54.288Z,75.99
2018-02-13T01:31:54.293Z,76.01
2018-02-13T01:32:54.354Z,75.82
2018-02-13T01:33:54.485Z,75.92
2018-02-13T01:34:54.295Z,76.03
2018-02-13T01:35:55.272Z,75.95
2018-02-13T01:36:54.309Z,76.02
2018-02-13T01:37:54.289Z,75.93
2018-02-13T01:38:54.293Z,75.77
2018-02-13T01:42:06.311Z,75.76
2018-02-13T01:42:54.291Z,75.87
2018-02-13T01:43:54.405Z,75.96
2018-02-13T01:44:54.289Z,76.14
2018-02-13T01:45:54.292Z,75.98
2018-02-13T01:46:54.289Z,76.11
2018-02-13T01:47:54.298Z,76.03
2018-02-13T01:48:54.137Z,76.22
2018-02-13T01:49:54.151Z,76.12
2018-02-13T01:50:54.142Z,75.96
2018-02-13T01:51:54.211Z,75.88
2018-02-13T01:52:54.136Z,76.18
2018-02-13T01:53:54.236Z,76.01
2018-02-13T01:54:54.195Z,76.16
2018-02-13T01:55:54.132Z,76
2018-02-13T01:56:54.139Z,75.92
2018-02-13T01:57:54.147Z,76.31
2018-02-13T02:00:27.844Z,76.3
2018-02-13T02:00:54.293Z,76.2
2018-02-13T02:01:54.272Z,76.15
2018-02-13T02:02:54.143Z,76.63
2018-02-13T02:03:54.150Z,76.33
2018-02-13T02:04:54.150Z,76.16
2018-02-13T02:05:54.136Z,76.56
2018-02-13T02:06:54.140Z,76.73
2018-02-13T02:07:54.140Z,76.37
2018-02-13T02:08:54.440Z,76.45
2018-02-13T02:09:54.255Z,76.34
2018-02-13T02:10:54.146Z,76.39
2018-02-13T02:11:54.143Z,76.41
2018-02-13T02:12:54.243Z,76.25
2018-02-13T02:13:54.142Z,76.46
2018-02-13T02:14:54.255Z,76.32
2018-02-13T02:15:54.138Z,76.42
2018-02-13T02:16:54.157Z,76.22
2018-02-13T02:17:54.153Z,76.3
2018-02-13T02:18:54.147Z,76.38
2018-02-13T02:19:54.101Z,76.84
2018-02-13T02:20:54.060Z,76.69
2018-02-13T02:21:54.055Z,76.6
2018-02-13T02:22:54.070Z,76.59
2018-02-13T02:23:54.076Z,76.52
2018-02-13T02:24:54.061Z,76.62
2018-02-13T02:25:54.093Z,76.73
2018-02-13T02:26:54.061Z,76.48
2018-02-13T02:27:54.071Z,76.51
2018-02-13T02:28:54.080Z,76.53
2018-02-13T02:29:54.065Z,76.57
2018-02-13T02:30:54.081Z,76.54
2018-02-13T02:31:54.067Z,76.7
2018-02-13T02:32:54.064Z,76.71
2018-02-13T02:33:54.066Z,76.55
2018-02-13T02:34:54.060Z,76.71
2018-02-13T02:35:54.080Z,76.5
2018-02-13T02:36:54.059Z,76.76
2018-02-13T02:37:54.059Z,76.68
2018-02-13T02:38:54.061Z,76.74
2018-02-13T02:39:54.074Z,76.8
2018-02-13T02:40:54.083Z,76.8
2018-02-13T02:41:54.074Z,77.11
2018-02-13T02:42:54.073Z,77.04
2018-02-13T02:43:54.078Z,77.03
2018-02-13T02:44:54.073Z,77.14
2018-02-13T02:45:54.092Z,77.3
2018-02-13T02:46:54.059Z,76.99
2018-02-13T02:47:54.081Z,77.13
2018-02-13T02:48:54.063Z,77.24
2018-02-13T02:49:54.072Z,77.17
2018-02-13T02:50:53.949Z,77.04
2018-02-13T02:51:53.933Z,77.09
2018-02-13T02:52:53.936Z,77
2018-02-13T02:53:53.931Z,76.85
2018-02-13T02:54:53.939Z,76.77
2018-02-13T02:55:54.116Z,76.95
2018-02-13T02:56:53.928Z,76.92
2018-02-13T02:57:53.928Z,77.12
2018-02-13T02:58:53.932Z,76.88
2018-02-13T02:59:53.936Z,76.83
2018-02-13T03:00:53.955Z,76.96
2018-02-13T03:01:53.927Z,76.98
2018-02-13T03:02:53.933Z,76.67
2018-02-13T03:03:53.937Z,77.07
2018-02-13T03:04:53.935Z,77.15
2018-02-13T03:05:53.951Z,77.14
2018-02-13T03:06:53.933Z,77.23
2018-02-13T03:07:54.066Z,77.16
2018-02-13T03:10:20.950Z,77.05
2018-02-13T03:10:53.923Z,77.14
2018-02-13T03:11:53.931Z,77.19
2018-02-13T03:12:53.950Z,77.13
2018-02-13T03:13:53.993Z,77.2
2018-02-13T03:14:53.927Z,77.17
2018-02-13T03:15:53.933Z,77.27
2018-02-13T03:16:53.942Z,77.33
2018-02-13T03:18:01.959Z,77.35
2018-02-13T03:18:53.935Z,77.41
2018-02-13T03:19:53.984Z,77.37
2018-02-13T03:20:53.933Z,77.42
2018-02-13T03:21:53.756Z,77.3
2018-02-13T03:22:53.760Z,77.51
2018-02-13T03:23:53.763Z,77.69
2018-02-13T03:24:53.760Z,77.38
2018-02-13T03:25:53.759Z,77.31
2018-02-13T03:26:53.761Z,77.41
2018-02-13T03:27:53.766Z,77.31
2018-02-13T03:28:53.765Z,77.33
2018-02-13T03:29:53.762Z,77.45
2018-02-13T03:30:53.782Z,77.16
2018-02-13T03:31:53.780Z,77.36
2018-02-13T03:32:53.796Z,77.41
2018-02-13T03:33:53.763Z,77.37
2018-02-13T03:34:53.764Z,77.43
2018-02-13T03:35:53.772Z,77.19
2018-02-13T03:36:53.777Z,77.53
2018-02-13T03:37:53.763Z,77.46
2018-02-13T03:38:53.785Z,77.45
2018-02-13T03:39:53.776Z,77.71
2018-02-13T03:40:53.779Z,77.49
2018-02-13T03:41:53.788Z,77.64
2018-02-13T03:42:53.770Z,77.6
2018-02-13T03:43:53.805Z,77.54
2018-02-13T03:44:53.777Z,77.63
2018-02-13T03:45:53.773Z,77.89
2018-02-13T03:46:53.789Z,77.49
2018-02-13T03:47:53.790Z,77.8
2018-02-13T03:48:53.804Z,77.88
2018-02-13T03:49:53.774Z,77.87
2018-02-13T03:50:53.776Z,77.88
2018-02-13T03:51:53.777Z,77.86
2018-02-13T03:52:54.603Z,77.94
2018-02-13T03:53:54.911Z,77.8
2018-02-13T03:54:54.614Z,77.73
2018-02-13T03:55:54.609Z,77.74
2018-02-13T03:56:54.603Z,78.07
2018-02-13T03:57:54.610Z,78.09
2018-02-13T03:58:54.637Z,78.04
2018-02-13T03:59:54.604Z,77.74
2018-02-13T04:00:54.620Z,77.81
2018-02-13T04:01:54.609Z,77.91
2018-02-13T04:02:54.620Z,77.92
2018-02-13T04:03:54.632Z,77.95
2018-02-13T04:04:54.616Z,77.85
2018-02-13T04:05:54.611Z,77.98
2018-02-13T04:06:54.617Z,77.91
2018-02-13T04:07:54.608Z,77.97
2018-02-13T04:08:54.613Z,78.09
2018-02-13T04:09:54.615Z,78.42
2018-02-13T04:10:54.620Z,77.98
2018-02-13T04:11:54.621Z,78.25
2018-02-13T04:12:54.618Z,78.33
2018-02-13T04:13:54.640Z,78.23
2018-02-13T04:14:54.609Z,78.17
2018-02-13T04:15:54.622Z,78.07
2018-02-13T04:16:54.626Z,78.18
2018-02-13T04:17:54.623Z,78.39
2018-02-13T04:18:54.658Z,78.56
2018-02-13T04:19:54.631Z,78.47
2018-02-13T04:20:54.626Z,78.17
2018-02-13T04:21:54.626Z,78.2
2018-02-13T04:22:54.448Z,78.48
2018-02-13T04:23:54.565Z,78.49
2018-02-13T04:24:54.458Z,78.3
2018-02-13T04:25:54.457Z,78.55
2018-02-13T04:26:54.463Z,78.32
2018-02-13T04:27:54.458Z,78.41
2018-02-13T04:28:54.477Z,78.39
2018-02-13T04:29:54.452Z,78.23
2018-02-13T04:30:54.455Z,78.41
2018-02-13T04:31:54.462Z,78.31
2018-02-13T04:32:54.463Z,78.29
2018-02-13T04:33:54.581Z,78.04
2018-02-13T04:34:54.460Z,78.21
2018-02-13T04:35:54.454Z,78.51
2018-02-13T04:36:54.456Z,78.55
2018-02-13T04:37:54.459Z,78.24
2018-02-13T04:38:54.485Z,78.34
2018-02-13T04:39:54.474Z,78.33
2018-02-13T04:40:54.727Z,78.46
2018-02-13T04:41:54.469Z,78.24
2018-02-13T04:42:54.476Z,78.59
2018-02-13T04:43:54.469Z,78.64
2018-02-13T04:44:54.467Z,78.61
2018-02-13T04:45:54.491Z,78.46
2018-02-13T04:46:54.466Z,78.52
2018-02-13T04:47:54.463Z,78.23
2018-02-13T04:48:54.466Z,78.14
2018-02-13T04:49:54.470Z,78.27
2018-02-13T04:50:54.485Z,78.77
2018-02-13T04:51:54.467Z,78.33
2018-02-13T04:52:54.463Z,78.6
2018-02-13T04:53:54.309Z,78.46
2018-02-13T04:54:54.307Z,78.37
2018-02-13T04:55:54.620Z,78.48
2018-02-13T04:56:54.306Z,78.64
2018-02-13T04:57:54.298Z,78.67
2018-02-13T04:58:54.308Z,78.24
2018-02-13T04:59:54.311Z,78.35
2018-02-13T05:00:54.346Z,78.44
2018-02-13T05:01:54.311Z,78.1
2018-02-13T05:02:54.321Z,78.5
2018-02-13T05:03:54.314Z,78.45
2018-02-13T05:04:54.315Z,78.35
2018-02-13T05:05:54.693Z,78.33
2018-02-13T05:06:54.311Z,78.57
2018-02-13T05:07:54.304Z,78.32
2018-02-13T05:08:54.310Z,78.17
2018-02-13T05:09:54.313Z,78.2
2018-02-13T05:10:54.347Z,78.56
2018-02-13T05:11:54.317Z,78.27
2018-02-13T05:12:54.316Z,78.27
2018-02-13T05:13:54.322Z,78.38
2018-02-13T05:14:54.314Z,78.46
2018-02-13T05:15:54.317Z,78.55
2018-02-13T05:16:54.316Z,78.65
2018-02-13T05:17:54.355Z,78.17
2018-02-13T05:18:54.330Z,78.16
2018-02-13T05:19:54.318Z,77.99
2018-02-13T05:20:54.332Z,78.13
2018-02-13T05:21:54.322Z,78.01
2018-02-13T05:22:54.328Z,78.31
2018-02-13T05:23:54.319Z,78.07
2018-02-13T05:24:54.162Z,78.29
2018-02-13T05:25:54.171Z,78.5
2018-02-13T05:26:54.167Z,78.5
2018-02-13T05:28:54.164Z,78.27
2018-02-13T05:29:54.166Z,78.24
2018-02-13T05:30:54.165Z,78.56
2018-02-13T05:31:54.149Z,78.36
2018-02-13T05:32:54.188Z,78.08
2018-02-13T05:33:54.161Z,78.5
2018-02-13T05:34:54.165Z,78.4
2018-02-13T05:35:54.157Z,78.44
2018-02-13T05:36:54.167Z,78.19
2018-02-13T05:37:54.191Z,78.52
2018-02-13T05:38:54.162Z,78.58
2018-02-13T05:39:54.167Z,78.45
2018-02-13T05:40:54.176Z,78.38
2018-02-13T05:41:54.172Z,78.34
2018-02-13T05:42:54.187Z,78.13
2018-02-13T05:43:54.163Z,78.31
2018-02-13T05:44:54.168Z,78.29
2018-02-13T05:45:54.164Z,78.06
2018-02-13T05:46:54.175Z,78.35
2018-02-13T05:47:54.171Z,78.17
2018-02-13T05:48:54.189Z,78.17
2018-02-13T05:49:54.179Z,78.23
2018-02-13T05:50:54.166Z,77.99
2018-02-13T05:51:54.172Z,77.87
2018-02-13T05:52:54.175Z,78.42
2018-02-13T05:53:54.169Z,78.51
2018-02-13T05:54:54.185Z,78.24
2018-02-13T05:55:54.056Z,78.07
2018-02-13T05:56:54.052Z,78.27
2018-02-13T06:00:22.067Z,78.4
2018-02-13T06:00:54.064Z,78.41
2018-02-13T06:01:54.100Z,78.17
2018-02-13T06:02:54.060Z,78.65
2018-02-13T06:03:54.056Z,78.48
2018-02-13T06:04:54.055Z,78.4
2018-02-13T06:05:54.055Z,78.48
2018-02-13T06:06:54.082Z,78.76
2018-02-13T06:07:54.058Z,78.57
2018-02-13T06:08:54.061Z,78.41
2018-02-13T06:09:54.064Z,78.35
2018-02-13T06:10:54.070Z,78.29
2018-02-13T06:11:54.062Z,78.27
2018-02-13T06:12:54.072Z,78.62
2018-02-13T06:13:54.055Z,78.77
2018-02-13T06:14:54.056Z,78.57
2018-02-13T06:15:54.058Z,78.91
2018-02-13T06:16:54.052Z,78.87
2018-02-13T06:17:54.056Z,78.81
2018-02-13T06:18:54.062Z,78.54
2018-02-13T06:19:54.083Z,78.66
2018-02-13T06:20:54.060Z,78.68
2018-02-13T06:21:54.053Z,78.68
2018-02-13T06:22:54.059Z,78.94
2018-02-13T06:23:54.060Z,78.87
2018-02-13T06:24:54.079Z,78.57
2018-02-13T06:25:54.057Z,78.52
2018-02-13T06:26:53.909Z,78.74
2018-02-13T06:28:53.899Z,78.73
2018-02-13T06:29:53.900Z,78.75
2018-02-13T06:30:53.907Z,79.55
2018-02-13T06:31:53.905Z,79.16
2018-02-13T06:32:53.905Z,79.4
2018-02-13T06:33:53.906Z,79.4
2018-02-13T06:34:53.910Z,79.54
2018-02-13T06:35:53.896Z,79.83
2018-02-13T06:36:53.898Z,79.63
2018-02-13T06:37:53.904Z,79.29
2018-02-13T06:38:53.999Z,79.51
2018-02-13T06:39:53.966Z,79.71
2018-02-13T06:40:53.906Z,79.71
2018-02-13T06:41:53.905Z,79.71
2018-02-13T06:42:53.907Z,79.56
2018-02-13T06:43:53.910Z,80.31
2018-02-13T06:44:53.936Z,79.86
2018-02-13T06:45:53.911Z,80.38
2018-02-13T06:46:53.912Z,80.55
2018-02-13T06:47:53.906Z,80.96
2018-02-13T06:48:53.911Z,80.4
2018-02-13T06:49:53.922Z,80.46
2018-02-13T06:50:53.916Z,80.56
2018-02-13T06:51:53.905Z,80.39
2018-02-13T06:52:53.901Z,80.55
2018-02-13T06:53:53.907Z,80.99
2018-02-13T06:54:53.901Z,81.24
2018-02-13T06:55:53.902Z,80.56
2018-02-13T06:56:54.020Z,81.31
2018-02-13T06:57:53.839Z,81.14
2018-02-13T06:58:53.852Z,81.43
2018-02-13T06:59:53.854Z,81.15
2018-02-13T07:00:53.854Z,81.44
2018-02-13T07:01:53.872Z,81.36
2018-02-13T07:02:53.845Z,81.07
2018-02-13T07:03:53.848Z,80.84
2018-02-13T07:04:53.851Z,80.8
2018-02-13T07:05:53.845Z,81.14
2018-02-13T07:06:53.843Z,80.98
2018-02-13T07:07:53.853Z,81.77
2018-02-13T07:08:53.861Z,81.59
2018-02-13T07:09:53.840Z,81.79
2018-02-13T07:10:53.849Z,82.17
2018-02-13T07:11:53.843Z,81.72
2018-02-13T07:12:53.840Z,81.5
2018-02-13T07:13:53.842Z,81.93
2018-02-13T07:14:53.845Z,81.98
2018-02-13T07:15:53.851Z,81.73
2018-02-13T07:16:53.867Z,81.66
2018-02-13T07:17:53.852Z,81.74
2018-02-13T07:18:53.852Z,81.71
2018-02-13T07:19:53.855Z,81.88
2018-02-13T07:20:53.869Z,82.23
2018-02-13T07:21:53.870Z,81.89
2018-02-13T07:22:53.859Z,81.9
2018-02-13T07:23:53.863Z,81.61
2018-02-13T07:24:53.866Z,81.84
2018-02-13T07:25:53.848Z,81.98
2018-02-13T07:26:53.854Z,81.74
2018-02-13T07:27:53.849Z,81.64
2018-02-13T07:28:53.728Z,82.36
2018-02-13T07:29:53.735Z,82.17
2018-02-13T07:30:53.723Z,81.84
2018-02-13T07:31:53.732Z,81.96
2018-02-13T07:32:53.732Z,81.96
2018-02-13T07:33:53.730Z,81.92
2018-02-13T07:34:53.734Z,81.86
2018-02-13T07:35:53.740Z,81.88
2018-02-13T07:36:53.736Z,81.63
2018-02-13T07:37:53.729Z,81.67
2018-02-13T07:38:53.751Z,81.22
2018-02-13T07:39:53.772Z,81.61
2018-02-13T07:40:53.775Z,81.64
2018-02-13T07:41:53.732Z,81.7
2018-02-13T07:42:53.726Z,81.67
2018-02-13T07:43:53.730Z,81.48
2018-02-13T07:44:53.737Z,81.5
2018-02-13T07:45:53.740Z,82.19
2018-02-13T07:46:53.759Z,81.61
2018-02-13T07:47:53.728Z,81.74
2018-02-13T07:48:53.732Z,81.57
2018-02-13T07:49:53.735Z,81.57
2018-02-13T07:50:53.739Z,81.48
2018-02-13T07:51:53.734Z,81.68
2018-02-13T07:52:53.730Z,81.76
2018-02-13T07:53:53.730Z,81.67
2018-02-13T07:54:53.743Z,81.59
2018-02-13T07:55:53.735Z,81.53
2018-02-13T07:56:53.731Z,81.46
2018-02-13T07:57:53.742Z,81.6
2018-02-13T07:58:53.733Z,81.48
2018-02-13T07:59:54.558Z,81.3
2018-02-13T08:00:54.835Z,81.38
2018-02-13T08:01:54.555Z,81.38
2018-02-13T08:02:54.551Z,81.55
2018-02-13T08:03:54.568Z,81.42
2018-02-13T08:04:54.557Z,81.16
2018-02-13T08:05:54.578Z,81.2
2018-02-13T08:06:54.557Z,81.12
2018-02-13T08:07:54.689Z,80.86
2018-02-13T08:08:54.610Z,81.01
2018-02-13T08:09:54.691Z,81.31
2018-02-13T08:10:54.554Z,81.74
2018-02-13T08:11:54.550Z,81.12
2018-02-13T08:12:54.552Z,81.12
2018-02-13T08:13:54.553Z,81.21
2018-02-13T08:14:54.554Z,81.14
2018-02-13T08:15:54.551Z,81.09
2018-02-13T08:16:54.557Z,81.09
2018-02-13T08:17:54.553Z,81.19
2018-02-13T08:18:54.559Z,81.3
2018-02-13T08:19:54.562Z,81.1
2018-02-13T08:20:54.555Z,81.09
2018-02-13T08:21:54.556Z,80.93
2018-02-13T08:22:54.559Z,81.19
2018-02-13T08:23:54.584Z,81.11
2018-02-13T08:24:54.558Z,81.11
2018-02-13T08:25:54.559Z,81.19
2018-02-13T08:26:54.557Z,81.03
2018-02-13T08:27:54.598Z,81.12
2018-02-13T08:28:54.574Z,80.95
2018-02-13T08:29:54.466Z,81.04
2018-02-13T08:30:54.462Z,81.21
2018-02-13T08:31:54.469Z,81.06
2018-02-13T08:32:54.462Z,81.38
2018-02-13T08:33:54.466Z,81.15
2018-02-13T08:34:54.463Z,80.94
2018-02-13T08:35:54.467Z,81.49
2018-02-13T08:36:54.463Z,81.01
2018-02-13T08:37:54.476Z,80.78
2018-02-13T08:38:54.478Z,80.92
2018-02-13T08:39:54.477Z,80.73
2018-02-13T08:40:54.466Z,80.81
2018-02-13T08:41:54.468Z,80.99
2018-02-13T08:42:54.463Z,80.78
2018-02-13T08:43:54.542Z,80.78
2018-02-13T08:44:54.489Z,80.6
2018-02-13T08:45:54.470Z,80.54
2018-02-13T08:46:54.472Z,80.57
2018-02-13T08:47:54.469Z,80.66
2018-02-13T08:48:54.465Z,80.5
2018-02-13T08:49:54.489Z,80.47
2018-02-13T08:50:54.471Z,80.12
2018-02-13T08:51:54.486Z,80.08
2018-02-13T08:52:54.467Z,79.66
2018-02-13T08:53:54.472Z,79.73
2018-02-13T08:54:54.506Z,79.7
2018-02-13T08:55:54.485Z,79.63
2018-02-13T08:56:54.472Z,79.6
2018-02-13T08:57:54.475Z,79.89
2018-02-13T08:58:54.464Z,79.8
2018-02-13T08:59:54.477Z,79.54
2018-02-13T09:00:54.327Z,79.72
2018-02-13T09:01:54.335Z,79.73
2018-02-13T09:02:54.357Z,79.57
2018-02-13T09:03:54.334Z,79.45
2018-02-13T09:04:54.337Z,79.32
2018-02-13T09:05:54.330Z,78.95
2018-02-13T09:06:54.387Z,79.19
2018-02-13T09:07:54.326Z,78.43
2018-02-13T09:08:54.333Z,78.81
2018-02-13T09:09:54.329Z,78.93
2018-02-13T09:10:54.328Z,78.8
2018-02-13T09:11:54.350Z,78.76
2018-02-13T09:12:54.344Z,78.73
2018-02-13T09:13:54.329Z,78.62
2018-02-13T09:14:54.351Z,78.8
2018-02-13T09:15:54.330Z,78.42
2018-02-13T09:16:54.345Z,78.34
2018-02-13T09:17:54.342Z,78.38
2018-02-13T09:18:54.353Z,78.46
2018-02-13T09:19:54.334Z,78.64
2018-02-13T09:20:54.349Z,78.6
2018-02-13T09:21:54.332Z,78.55
2018-02-13T09:22:54.336Z,78.48
2018-02-13T09:23:54.347Z,78.36
2018-02-13T09:24:54.334Z,78.63
2018-02-13T09:25:54.331Z,78.38
2018-02-13T09:26:54.337Z,78.16
2018-02-13T09:27:54.338Z,78.27
2018-02-13T09:28:54.331Z,78.2
2018-02-13T09:29:54.724Z,78.24
2018-02-13T09:30:54.562Z,78.07
2018-02-13T09:31:54.554Z,77.66
2018-02-13T09:32:54.560Z,76.93
2018-02-13T09:33:54.569Z,76.76
2018-02-13T09:34:54.585Z,76.94
2018-02-13T09:35:54.559Z,77.12
2018-02-13T09:36:54.565Z,76.93
2018-02-13T09:37:54.561Z,76.9
2018-02-13T09:38:54.566Z,76.5
2018-02-13T09:39:54.590Z,76.59
2018-02-13T09:40:54.565Z,76.81
2018-02-13T09:41:54.564Z,77.01
2018-02-13T09:42:54.564Z,77.3
2018-02-13T09:43:54.559Z,77.36
2018-02-13T09:44:54.564Z,77
2018-02-13T09:45:54.846Z,77.16
2018-02-13T09:46:54.559Z,77.29
2018-02-13T09:47:54.561Z,77.45
2018-02-13T09:48:54.566Z,77.3
2018-02-13T09:49:54.576Z,77.23
2018-02-13T09:50:54.591Z,77.2
2018-02-13T09:51:54.568Z,77.37
2018-02-13T09:52:54.562Z,77.26
2018-02-13T09:53:54.557Z,77.23
2018-02-13T09:54:54.569Z,76.79
2018-02-13T09:55:54.598Z,76.77
2018-02-13T09:56:54.572Z,76.35
2018-02-13T09:57:54.566Z,76.78
2018-02-13T09:58:54.561Z,76.41
2018-02-13T09:59:54.567Z,76.27
2018-02-13T10:00:54.597Z,75.81
2018-02-13T10:01:54.458Z,75.92
2018-02-13T10:02:54.426Z,75.68
2018-02-13T10:03:54.448Z,76.13
2018-02-13T10:04:54.438Z,75.24
2018-02-13T10:05:54.459Z,75.19
2018-02-13T10:06:54.434Z,75.3
2018-02-13T10:07:54.437Z,75.12
2018-02-13T10:08:54.432Z,74.79
2018-02-13T10:09:54.441Z,75.18
2018-02-13T10:10:54.469Z,75.41
2018-02-13T10:11:54.440Z,74.14
2018-02-13T10:12:54.436Z,73.73
2018-02-13T10:13:54.438Z,73.27
2018-02-13T10:14:54.441Z,72.28
2018-02-13T10:15:54.438Z,71.51
2018-02-13T10:16:54.434Z,72.14
2018-02-13T10:17:54.424Z,72.43
2018-02-13T10:18:54.431Z,72.92
2018-02-13T10:19:54.443Z,72.98
2018-02-13T10:20:54.427Z,72.39
2018-02-13T10:21:54.470Z,71.99
2018-02-13T10:22:54.442Z,72.33
2018-02-13T10:23:54.441Z,72.43
2018-02-13T10:24:54.445Z,72.08
2018-02-13T10:25:54.443Z,72.28
2018-02-13T10:26:54.452Z,72.71
2018-02-13T10:27:54.513Z,72.63
2018-02-13T10:28:54.535Z,71.01
2018-02-13T10:29:54.526Z,70.39
2018-02-13T10:30:54.537Z,70.54
2018-02-13T10:31:54.593Z,70.14
2018-02-13T10:32:53.772Z,70.82
2018-02-13T10:33:53.782Z,71.37
2018-02-13T10:34:53.791Z,71.18
2018-02-13T10:35:53.784Z,70.97
2018-02-13T10:36:53.796Z,71.27
2018-02-13T10:37:53.791Z,69.37
2018-02-13T10:38:53.783Z,67.05
2018-02-13T10:39:53.775Z,66.24
2018-02-13T10:40:53.816Z,66.91
2018-02-13T10:41:53.772Z,66.74
2018-02-13T10:42:53.777Z,66.76
2018-02-13T10:43:53.779Z,66.99
2018-02-13T10:44:53.781Z,66.45
2018-02-13T10:45:53.805Z,67.36
2018-02-13T10:46:53.802Z,66.13
2018-02-13T10:47:53.788Z,65.55
2018-02-13T10:48:53.787Z,65.03
2018-02-13T10:49:53.772Z,65.44
2018-02-13T10:50:53.813Z,65.74
2018-02-13T10:51:53.794Z,65.28
2018-02-13T10:52:53.784Z,65.65
2018-02-13T10:54:53.806Z,65.09
2018-02-13T10:55:53.801Z,64.21
2018-02-13T10:56:53.774Z,65.88
2018-02-13T10:57:53.772Z,64.85
2018-02-13T10:58:53.779Z,65.89
2018-02-13T10:59:53.781Z,66.01
2018-02-13T11:00:53.796Z,64.54
2018-02-13T11:01:53.797Z,64.75
2018-02-13T11:02:53.774Z,63.18
2018-02-13T11:03:53.613Z,64.05
2018-02-13T11:04:53.613Z,63.45
2018-02-13T11:05:53.733Z,63.83
2018-02-13T11:06:53.618Z,62.65
2018-02-13T11:07:53.610Z,62.98
2018-02-13T11:08:53.610Z,63.13
2018-02-13T11:09:53.614Z,62.98
2018-02-13T11:10:53.657Z,63.69
2018-02-13T11:11:53.613Z,63.94
2018-02-13T11:12:53.620Z,62.31
2018-02-13T11:13:53.603Z,62.64
2018-02-13T11:14:53.734Z,62.88
2018-02-13T11:15:53.630Z,63.08
2018-02-13T11:16:53.619Z,63.09
2018-02-13T11:17:53.611Z,62.13
2018-02-13T11:18:53.616Z,62.85
2018-02-13T11:19:53.624Z,62.76
2018-02-13T11:20:53.604Z,62.8
2018-02-13T11:21:53.615Z,61.78
2018-02-13T11:22:53.616Z,60.86
2018-02-13T11:23:53.617Z,57.41
2018-02-13T11:24:53.638Z,56.55
2018-02-13T11:25:53.606Z,55.9
2018-02-13T11:26:53.624Z,53.37
2018-02-13T11:27:53.629Z,51.1
2018-02-13T11:28:53.617Z,52.54
2018-02-13T11:29:53.625Z,50.88
2018-02-13T11:30:53.617Z,50.85
2018-02-13T11:31:53.606Z,51.89
2018-02-13T11:32:53.612Z,52.87
2018-02-13T11:33:53.619Z,51.57
2018-02-13T11:34:54.486Z,51.89
2018-02-13T11:35:54.476Z,50.83
2018-02-13T11:36:54.462Z,51.35
2018-02-13T11:37:54.450Z,49.81
2018-02-13T11:38:54.458Z,49.37
2018-02-13T11:39:54.500Z,50.83
2018-02-13T11:40:54.454Z,49.85
2018-02-13T11:41:54.445Z,50.42
2018-02-13T11:42:54.451Z,50.02
2018-02-13T11:43:54.446Z,50.97
2018-02-13T11:44:54.452Z,50.16
2018-02-13T11:45:54.460Z,49.59
2018-02-13T11:46:54.465Z,49.48
2018-02-13T11:47:54.454Z,49.62
2018-02-13T11:48:54.463Z,49.13
2018-02-13T11:49:54.449Z,48.56
2018-02-13T11:50:54.456Z,49.27
2018-02-13T11:51:54.808Z,50.2
2018-02-13T11:52:54.460Z,50.6
2018-02-13T11:53:58.702Z,50.97
2018-02-13T11:54:55.923Z,50.22
2018-02-13T11:55:54.746Z,50.91
2018-02-13T11:56:54.498Z,49.55
2018-02-13T11:57:54.458Z,50.52
2018-02-13T11:58:54.449Z,50.21
2018-02-13T11:59:54.470Z,50.81
2018-02-13T12:00:54.464Z,48.84
2018-02-13T12:01:54.479Z,49.36
2018-02-13T12:02:54.460Z,49.19
2018-02-13T12:03:54.482Z,50.14
2018-02-13T12:04:53.614Z,48.56
2018-02-13T12:05:53.606Z,49.48
2018-02-13T12:06:53.612Z,48.01
2018-02-13T12:07:53.605Z,47.79
2018-02-13T12:08:53.628Z,48.63
2018-02-13T12:09:53.621Z,48.8
2018-02-13T12:10:53.618Z,48.1
2018-02-13T12:11:53.629Z,47.28
2018-02-13T12:12:53.606Z,48.44
2018-02-13T12:13:54.037Z,48.33
2018-02-13T12:14:53.604Z,48.17
2018-02-13T12:15:53.626Z,47.61
2018-02-13T12:16:53.602Z,47.44
2018-02-13T12:17:53.607Z,47.42
2018-02-13T12:18:53.623Z,45.91
2018-02-13T12:19:53.605Z,47.76
2018-02-13T12:20:53.608Z,46.71
2018-02-13T12:21:53.600Z,47.52
2018-02-13T12:22:53.621Z,48.35
2018-02-13T12:23:53.644Z,47.93
2018-02-13T12:24:53.614Z,46.8
2018-02-13T12:25:53.608Z,47.48
2018-02-13T12:26:53.614Z,46.72
2018-02-13T12:27:53.609Z,46.78
2018-02-13T12:28:53.637Z,46.16
2018-02-13T12:29:53.617Z,46.51
2018-02-13T12:30:53.608Z,48.22
2018-02-13T12:31:53.606Z,48.02
2018-02-13T12:32:53.609Z,47.37
2018-02-13T12:33:53.638Z,46.74
2018-02-13T12:34:53.622Z,46.86
2018-02-13T12:35:54.492Z,46.27
2018-02-13T12:36:54.497Z,45.4
2018-02-13T12:37:54.475Z,45.43
2018-02-13T12:38:54.472Z,46.61
2018-02-13T12:39:54.485Z,45.79
2018-02-13T12:40:54.474Z,47.33
2018-02-13T12:41:54.468Z,47.93
2018-02-13T12:42:54.513Z,47.05
2018-02-13T12:43:54.480Z,45.51
2018-02-13T12:44:54.868Z,46.5
2018-02-13T12:45:54.479Z,45.88
2018-02-13T12:46:54.472Z,45.53
2018-02-13T12:47:54.481Z,46.49
2018-02-13T12:48:54.590Z,45.95
2018-02-13T12:49:54.495Z,44.77
2018-02-13T12:50:54.479Z,44.96
2018-02-13T12:51:54.508Z,45.64
2018-02-13T12:52:54.470Z,45.44
2018-02-13T12:53:54.478Z,44.91
2018-02-13T12:54:54.504Z,45.38
2018-02-13T12:55:54.492Z,44.08
2018-02-13T12:56:54.479Z,44.52
2018-02-13T12:57:54.546Z,45.93
2018-02-13T12:58:54.481Z,44.8
2018-02-13T12:59:54.496Z,45.07
2018-02-13T13:00:54.483Z,45.04
2018-02-13T13:01:54.489Z,45.41
2018-02-13T13:02:54.479Z,45.06
2018-02-13T13:03:54.491Z,45.16
2018-02-13T13:04:54.501Z,45.29
2018-02-13T13:05:54.352Z,44.75
2018-02-13T13:06:54.349Z,44.38
2018-02-13T13:07:54.390Z,43.49